Time;durP1;ratioP1;P1;durP2;ratioP2;P2;SDS_P1;SDS_P2;PMS_P1;PMS_P2;Temp;Humidity;BMP_temperature;BMP_pressure;BME280_temperature;BME280_humidity;BME280_pressure;Samples;Min_cycle;Max_cycle;Signal;HPM_P1;HPM_P2
2024/01/26 00:00:26;;;;;;;21.13;6.80;;;4.60;99.90;;;;;;6167070;23;20632;-85
2024/01/26 00:02:53;;;;;;;23.08;9.00;;;4.60;99.90;;;;;;6172273;23;20200;-85
2024/01/26 00:05:19;;;;;;;14.32;6.32;;;4.60;99.90;;;;;;6171662;23;20667;-85
2024/01/26 00:07:46;;;;;;;16.30;7.57;;;4.60;99.90;;;;;;6176262;23;20232;-85
2024/01/26 00:10:13;;;;;;;16.30;6.45;;;4.60;99.90;;;;;;6175929;23;20181;-85
2024/01/26 00:12:40;;;;;;;16.98;6.15;;;4.60;99.90;;;;;;6170980;23;20519;-84
2024/01/26 00:31:34;;;;;;;15.48;6.35;;;4.50;99.90;;;;;;6036024;23;20287;-89
2024/01/26 00:37:28;;;;;;;16.02;6.22;;;4.50;99.90;;;;;;6149911;23;20156;-88
2024/01/26 00:41:11;;;;;;;;;;;;;;;;;;;;;
2024/01/26 01:43:14;;;;;;;22.13;8.07;;;3.60;47.40;;;;;;5838807;24;20159;-88
2024/01/26 02:18:32;;;;;;;;;;;;;;;;;;;;;
2024/01/26 02:34:48;;;;;;;;;;;;;;;;;;;;;
2024/01/26 02:38:17;;;;;;;20.23;8.13;;;3.20;99.90;;;;;;5953048;23;20226;-88
2024/01/26 05:59:03;;;;;;;23.55;8.18;;;3.50;1.00;;;;;;5902030;24;20697;-88
2024/01/26 06:04:31;;;;;;;17.85;7.88;;;3.50;1.00;;;;;;6034848;23;20203;-88
2024/01/26 06:43:15;;;;;;;13.30;7.25;;;3.20;1.00;;;;;;6165273;23;20271;-91
2024/01/26 06:46:25;;;;;;;17.80;9.82;;;3.20;1.00;;;;;;6152693;23;20207;-91
2024/01/26 06:49:37;;;;;;;19.80;9.10;;;3.20;1.00;;;;;;6170641;23;20180;-91
2024/01/26 06:56:01;;;;;;;21.83;9.63;;;3.10;1.00;;;;;;5854114;24;20272;-91
2024/01/26 10:00:18;;;;;;;13.40;8.00;;;6.20;99.90;;;;;;6164092;23;20204;-88
2024/01/26 10:03:52;;;;;;;12.80;7.13;;;6.30;99.90;;;;;;6170025;23;20187;-90
2024/01/26 10:15:29;;;;;;;10.48;6.65;;;6.50;99.90;;;;;;6166012;23;20196;-90
2024/01/26 10:21:06;;;;;;;15.60;7.53;;;6.60;99.90;;;;;;6142196;23;20410;-90
2024/01/26 10:26:32;;;;;;;13.50;7.47;;;6.60;99.90;;;;;;6143461;23;20208;-88
2024/01/26 10:29:12;;;;;;;19.30;6.73;;;6.70;99.90;;;;;;6183241;23;20425;-90
2024/01/26 10:32:22;;;;;;;22.77;6.97;;;6.80;1.00;;;;;;6183661;23;20404;-90
2024/01/26 10:35:05;;;;;;;15.60;6.95;;;7.10;1.00;;;;;;6171677;23;20199;-91
2024/01/26 11:19:35;;;;;;;12.93;6.43;;;7.70;1.00;;;;;;6169670;23;20253;-89
2024/01/26 11:22:10;;;;;;;13.90;5.67;;;7.80;1.00;;;;;;6202344;23;20496;-88
2024/01/26 11:24:47;;;;;;;20.30;8.27;;;7.90;1.00;;;;;;6198411;23;20453;-88
2024/01/26 11:27:38;;;;;;;11.97;7.57;;;7.80;1.00;;;;;;6199024;23;20373;-89
2024/01/26 11:30:29;;;;;;;16.33;8.37;;;7.80;1.00;;;;;;6205744;23;20778;-90
2024/01/26 11:33:29;;;;;;;9.90;6.57;;;7.80;1.00;;;;;;6200917;23;20399;-90
2024/01/26 11:36:35;;;;;;;8.33;5.77;;;7.90;1.00;;;;;;6195626;23;20431;-90
2024/01/26 11:39:21;;;;;;;12.60;6.50;;;7.90;1.00;;;;;;6188916;23;20944;-90
2024/01/26 11:42:14;;;;;;;17.70;9.07;;;7.90;1.00;;;;;;6193403;23;20439;-90
2024/01/26 11:45:33;;;;;;;;;;;;;;;;;;;;;
2024/01/26 11:48:57;;;;;;;12.67;8.00;;;7.90;1.00;;;;;;6194352;23;20738;-90
2024/01/26 11:51:50;;;;;;;10.50;7.23;;;7.90;1.00;;;;;;6200577;23;20414;-90
2024/01/26 12:18:54;;;;;;;;;;;;;;;;;;;;;
2024/01/26 12:32:02;;;;;;;10.63;6.80;;;7.80;99.90;;;;;;6051034;23;20388;-90
2024/01/26 12:48:31;;;;;;;13.50;6.83;;;7.80;99.90;;;;;;6054287;23;20831;-92
2024/01/26 13:08:58;;;;;;;12.77;7.10;;;7.80;1.00;;;;;;6011005;23;20411;-90
2024/01/26 13:11:56;;;;;;;9.67;6.63;;;7.70;1.00;;;;;;6151749;23;20387;-89
2024/01/26 13:21:48;;;;;;;8.43;6.53;;;7.90;1.00;;;;;;6186327;23;20482;-91
2024/01/26 13:24:52;;;;;;;;;;;;;;;;;;;;;
2024/01/26 13:30:43;;;;;;;10.70;7.10;;;8.00;1.00;;;;;;6139604;23;20434;-89
2024/01/26 13:33:11;;;;;;;7.80;6.63;;;8.10;1.00;;;;;;6191944;23;20396;-89
2024/01/26 13:35:37;;;;;;;7.63;6.00;;;8.10;1.00;;;;;;6192386;23;20414;-88
2024/01/26 13:38:04;;;;;;;6.60;6.00;;;8.10;1.00;;;;;;6192679;23;20407;-88
2024/01/26 13:40:31;;;;;;;8.00;6.47;;;8.10;1.00;;;;;;6189558;23;20389;-88
2024/01/26 13:43:00;;;;;;;6.50;5.10;;;8.20;1.00;;;;;;6194233;23;20469;-88
2024/01/26 13:45:27;;;;;;;7.33;6.30;;;8.20;1.00;;;;;;6194913;23;21008;-87
2024/01/26 13:47:55;;;;;;;6.57;5.70;;;8.30;6.20;;;;;;6194631;23;20434;-88
2024/01/26 13:50:22;;;;;;;7.60;5.80;;;8.30;16.80;;;;;;6204090;23;20455;-87
2024/01/26 13:52:51;;;;;;;6.60;5.47;;;8.30;26.40;;;;;;6212457;23;20415;-86
2024/01/26 13:55:18;;;;;;;7.07;5.63;;;8.40;38.10;;;;;;6207133;23;20387;-88
2024/01/26 13:57:45;;;;;;;9.00;5.83;;;8.40;50.70;;;;;;6206534;23;20433;-89
2024/01/26 14:00:15;;;;;;;7.80;5.57;;;8.40;64.50;;;;;;6208469;23;20414;-89
2024/01/26 14:02:45;;;;;;;7.03;5.77;;;8.50;81.70;;;;;;6198095;23;20413;-87
2024/01/26 14:05:13;;;;;;;8.90;7.73;;;8.50;92.10;;;;;;6195532;23;20407;-87
2024/01/26 14:07:41;;;;;;;5.40;4.90;;;8.50;98.40;;;;;;6194529;23;21000;-87
2024/01/26 14:10:11;;;;;;;7.90;4.77;;;8.60;99.90;;;;;;6192108;23;20443;-88
2024/01/26 14:12:38;;;;;;;13.43;8.63;;;8.50;99.90;;;;;;6192992;23;20905;-88
2024/01/26 14:15:05;;;;;;;10.40;5.20;;;8.60;99.90;;;;;;6201170;23;20435;-86
2024/01/26 14:17:32;;;;;;;7.53;5.97;;;8.60;99.90;;;;;;6194723;23;20766;-87
2024/01/26 14:19:59;;;;;;;9.03;5.67;;;8.60;99.90;;;;;;6195557;23;20455;-88
2024/01/26 14:22:27;;;;;;;6.90;5.87;;;8.60;99.90;;;;;;6196641;23;20391;-88
2024/01/26 14:24:55;;;;;;;6.40;5.70;;;8.60;99.90;;;;;;6195601;23;20409;-87
2024/01/26 14:27:21;;;;;;;5.77;4.43;;;8.60;99.90;;;;;;6210643;23;20422;-89
2024/01/26 14:29:48;;;;;;;6.60;5.00;;;8.60;99.90;;;;;;6212674;23;20447;-87
2024/01/26 14:32:18;;;;;;;6.90;5.17;;;8.60;99.90;;;;;;6212423;23;20374;-85
2024/01/26 14:34:45;;;;;;;4.37;3.97;;;8.60;99.90;;;;;;6200208;23;20715;-87
2024/01/26 14:37:12;;;;;;;5.90;5.00;;;8.70;99.90;;;;;;6196627;23;20459;-87
2024/01/26 14:39:40;;;;;;;7.17;5.57;;;8.70;99.90;;;;;;6193882;23;20406;-87
2024/01/26 14:42:07;;;;;;;5.63;5.17;;;8.70;99.90;;;;;;6195078;23;20459;-89
2024/01/26 14:44:35;;;;;;;4.70;3.40;;;8.70;99.90;;;;;;6194652;23;20434;-87
2024/01/26 14:47:02;;;;;;;3.90;3.60;;;8.80;99.90;;;;;;6195201;23;20431;-87
2024/01/26 14:49:30;;;;;;;4.90;4.50;;;8.90;99.90;;;;;;6195263;23;20442;-88
2024/01/26 14:51:57;;;;;;;7.53;4.30;;;8.80;99.90;;;;;;6195918;23;20906;-87
2024/01/26 14:54:24;;;;;;;9.23;4.23;;;8.80;99.90;;;;;;6204846;23;20393;-87
2024/01/26 14:56:52;;;;;;;4.60;4.20;;;8.80;99.90;;;;;;6214263;23;20432;-88
2024/01/26 14:59:19;;;;;;;4.47;4.07;;;8.80;99.90;;;;;;6215354;23;20415;-89
2024/01/26 15:01:47;;;;;;;4.70;4.07;;;8.80;99.90;;;;;;6214984;23;20393;-86
2024/01/26 15:04:15;;;;;;;3.60;3.33;;;8.90;99.90;;;;;;6205905;23;20769;-88
2024/01/26 15:06:42;;;;;;;4.87;4.33;;;8.90;99.90;;;;;;6196794;23;20426;-87
2024/01/26 15:09:11;;;;;;;3.93;3.13;;;8.90;99.90;;;;;;6196107;23;20506;-89
2024/01/26 15:11:40;;;;;;;4.03;3.13;;;9.00;99.90;;;;;;6204538;23;20441;-88
2024/01/26 15:14:08;;;;;;;3.07;2.77;;;9.00;99.90;;;;;;6201944;23;20401;-88
2024/01/26 15:16:35;;;;;;;2.13;1.77;;;9.00;99.90;;;;;;6205067;23;20408;-87
2024/01/26 15:19:03;;;;;;;1.80;1.70;;;9.00;99.90;;;;;;6203568;23;20381;-87
2024/01/26 15:21:30;;;;;;;1.70;1.60;;;8.90;99.90;;;;;;6199612;23;20498;-86
2024/01/26 15:23:57;;;;;;;1.73;1.17;;;8.90;99.90;;;;;;6196574;23;20391;-87
2024/01/26 15:26:25;;;;;;;2.97;1.57;;;8.80;99.90;;;;;;6196722;23;20477;-86
2024/01/26 15:28:52;;;;;;;1.83;1.73;;;8.80;99.90;;;;;;6200995;23;20902;-87
2024/01/26 15:31:23;;;;;;;1.70;1.50;;;8.70;35.10;;;;;;6194920;23;20410;-88
2024/01/26 15:33:50;;;;;;;2.27;1.20;;;8.70;1.00;;;;;;6195881;23;20486;-87
2024/01/26 15:36:17;;;;;;;1.60;1.00;;;8.70;1.00;;;;;;6197279;23;20402;-87
2024/01/26 15:38:45;;;;;;;1.63;1.53;;;8.60;1.00;;;;;;6195611;23;20427;-87
2024/01/26 15:41:11;;;;;;;2.47;1.17;;;8.60;1.00;;;;;;6196536;23;20410;-86
2024/01/26 15:43:42;;;;;;;1.33;0.90;;;8.60;1.00;;;;;;6195831;23;20466;-87
2024/01/26 15:46:08;;;;;;;1.17;1.07;;;8.60;1.00;;;;;;6195905;23;20424;-87
2024/01/26 15:48:37;;;;;;;1.47;1.03;;;8.60;1.00;;;;;;6194283;23;20407;-88
2024/01/26 15:51:04;;;;;;;3.30;1.20;;;8.60;99.90;;;;;;6194315;23;20458;-88
2024/01/26 15:53:31;;;;;;;1.73;1.30;;;8.60;99.90;;;;;;6194402;23;20435;-88
2024/01/26 15:56:00;;;;;;;2.57;0.90;;;8.60;99.90;;;;;;6193028;23;20446;-86
2024/01/26 15:58:27;;;;;;;3.73;1.07;;;8.60;99.90;;;;;;6210584;23;20405;-86
2024/01/26 16:00:54;;;;;;;2.33;1.50;;;8.60;99.90;;;;;;6214303;23;20406;-88
2024/01/26 16:03:24;;;;;;;1.80;1.33;;;8.50;99.90;;;;;;6213780;23;20407;-87
2024/01/26 16:05:52;;;;;;;2.93;1.43;;;8.60;43.50;;;;;;6197002;23;20809;-87
2024/01/26 16:08:19;;;;;;;4.93;2.23;;;8.50;1.00;;;;;;6194911;23;20482;-86
2024/01/26 16:10:46;;;;;;;2.67;2.23;;;8.40;1.00;;;;;;6198987;23;20504;-88
2024/01/26 16:13:13;;;;;;;4.70;1.40;;;8.40;1.00;;;;;;6197176;23;20430;-88
2024/01/26 16:15:40;;;;;;;3.90;2.50;;;8.30;1.00;;;;;;6196035;23;20377;-88
2024/01/26 16:18:08;;;;;;;2.60;1.20;;;8.20;1.00;;;;;;6193886;23;20411;-87
2024/01/26 16:20:35;;;;;;;4.23;3.37;;;8.10;1.00;;;;;;6195305;23;20415;-86
2024/01/26 16:23:03;;;;;;;2.23;1.57;;;8.10;1.00;;;;;;6204410;23;20409;-87
2024/01/26 16:25:30;;;;;;;4.67;1.50;;;8.10;1.00;;;;;;6207875;23;20389;-88
2024/01/26 16:27:58;;;;;;;2.20;1.40;;;8.00;1.00;;;;;;6206694;23;20546;-87
2024/01/26 16:30:25;;;;;;;3.27;1.50;;;8.00;1.00;;;;;;6206705;23;20462;-88
2024/01/26 16:32:52;;;;;;;2.60;1.50;;;8.00;99.90;;;;;;6212213;23;20417;-87
2024/01/26 16:35:19;;;;;;;2.40;1.50;;;7.90;99.90;;;;;;6198692;23;20414;-86
2024/01/26 16:37:46;;;;;;;1.57;1.40;;;7.90;99.90;;;;;;6196067;23;21026;-87
2024/01/26 16:40:14;;;;;;;2.80;1.47;;;7.90;1.00;;;;;;6195531;23;20403;-88
2024/01/26 16:42:41;;;;;;;5.57;2.27;;;7.90;99.90;;;;;;6195701;23;20411;-87
2024/01/26 16:45:09;;;;;;;2.30;1.57;;;8.00;1.00;;;;;;6209386;23;20373;-88
2024/01/26 16:47:36;;;;;;;4.50;1.73;;;8.10;1.00;;;;;;6194438;23;20411;-88
2024/01/26 16:50:03;;;;;;;2.10;1.37;;;8.10;99.90;;;;;;6198095;23;20430;-85
2024/01/26 16:52:30;;;;;;;5.40;1.37;;;8.10;1.00;;;;;;6203180;23;20407;-88
2024/01/26 16:54:58;;;;;;;1.43;1.33;;;8.00;1.00;;;;;;6198021;23;20389;-86
2024/01/26 16:57:27;;;;;;;3.27;1.37;;;8.00;99.90;;;;;;6195990;23;20430;-87
2024/01/26 16:59:53;;;;;;;4.93;1.83;;;8.00;99.90;;;;;;6194778;23;20417;-88
2024/01/26 17:02:22;;;;;;;1.43;0.97;;;8.00;99.90;;;;;;6198624;23;20401;-88
2024/01/26 17:04:49;;;;;;;1.47;1.20;;;7.90;99.90;;;;;;6207183;23;20438;-86
2024/01/26 17:07:16;;;;;;;2.70;1.90;;;8.00;99.90;;;;;;6207613;23;20421;-88
2024/01/26 17:09:43;;;;;;;2.27;1.43;;;7.90;99.90;;;;;;6200270;23;20563;-89
2024/01/26 17:12:10;;;;;;;3.10;1.77;;;8.00;1.00;;;;;;6197161;23;20407;-87
2024/01/26 17:14:38;;;;;;;2.23;1.50;;;7.90;1.00;;;;;;6197171;23;20435;-86
2024/01/26 17:17:05;;;;;;;1.10;1.00;;;7.80;1.00;;;;;;6195892;23;20429;-87
2024/01/26 17:19:32;;;;;;;1.50;1.40;;;7.70;1.00;;;;;;6193115;23;20419;-87
2024/01/26 17:21:59;;;;;;;1.73;1.63;;;7.70;1.00;;;;;;6194203;23;20497;-87
2024/01/26 17:24:26;;;;;;;2.10;1.63;;;7.60;99.90;;;;;;6196133;23;20437;-85
2024/01/26 17:26:56;;;;;;;4.43;1.45;;;7.70;1.00;;;;;;6208152;23;20409;-84
2024/01/26 17:29:32;;;;;;;1.75;1.38;;;7.70;1.00;;;;;;6194975;23;20223;-85
2024/01/26 17:32:02;;;;;;;6.07;1.63;;;7.70;1.00;;;;;;6197034;23;20218;-88
2024/01/26 17:34:29;;;;;;;3.30;1.10;;;7.60;99.90;;;;;;6197789;23;20411;-86
2024/01/26 17:36:56;;;;;;;1.23;1.13;;;7.70;1.00;;;;;;6196220;23;20450;-88
2024/01/26 17:39:22;;;;;;;2.05;1.27;;;7.60;99.90;;;;;;6196368;23;20427;-86
2024/01/26 17:41:49;;;;;;;3.42;1.85;;;7.70;99.90;;;;;;6196677;23;20171;-87
2024/01/26 17:44:19;;;;;;;3.20;2.45;;;7.60;99.90;;;;;;6196370;23;20223;-87
2024/01/26 17:46:46;;;;;;;4.13;2.03;;;7.60;99.90;;;;;;6195669;23;20227;-86
2024/01/26 17:49:14;;;;;;;6.85;2.90;;;7.50;99.90;;;;;;6196834;23;20179;-89
2024/01/26 17:51:41;;;;;;;3.55;1.65;;;7.40;99.90;;;;;;6197044;23;20196;-88
2024/01/26 17:54:09;;;;;;;2.33;1.67;;;7.30;99.90;;;;;;6198075;23;20211;-86
2024/01/26 17:56:35;;;;;;;4.05;1.98;;;7.20;99.90;;;;;;6197223;23;20200;-87
2024/01/26 17:59:02;;;;;;;2.85;1.40;;;7.10;99.90;;;;;;6196645;23;20231;-88
2024/01/26 18:01:29;;;;;;;4.38;2.65;;;7.10;99.90;;;;;;6196029;23;20195;-87
2024/01/26 18:03:57;;;;;;;5.47;2.80;;;7.10;99.90;;;;;;6204691;23;20163;-87
2024/01/26 18:06:25;;;;;;;10.23;3.40;;;7.10;99.90;;;;;;6203320;23;20222;-88
2024/01/26 18:08:52;;;;;;;8.45;2.30;;;7.20;56.30;;;;;;6202747;23;20180;-87
2024/01/26 18:11:20;;;;;;;8.85;3.40;;;7.20;1.00;;;;;;6204637;23;20195;-88
2024/01/26 18:13:47;;;;;;;6.35;1.90;;;7.20;1.00;;;;;;6203035;23;20176;-89
2024/01/26 18:16:14;;;;;;;10.80;2.67;;;7.30;1.00;;;;;;6193285;23;20199;-88
2024/01/26 18:18:41;;;;;;;5.80;2.45;;;7.20;1.00;;;;;;6203576;23;20207;-89
2024/01/26 18:21:08;;;;;;;7.75;3.00;;;7.30;99.90;;;;;;6204041;23;20179;-88
2024/01/26 18:23:40;;;;;;;7.35;3.70;;;7.20;99.90;;;;;;6211296;23;20174;-88
2024/01/26 18:26:08;;;;;;;6.60;2.00;;;7.30;1.00;;;;;;6212321;23;20209;-88
2024/01/26 18:28:36;;;;;;;10.23;3.42;;;7.40;1.00;;;;;;6204264;23;20182;-87
2024/01/26 18:31:11;;;;;;;11.93;2.67;;;7.40;1.00;;;;;;6196023;23;20196;-89
2024/01/26 18:33:39;;;;;;;4.18;2.10;;;7.90;99.90;;;;;;6206517;23;20199;-90
2024/01/26 18:36:06;;;;;;;4.82;2.17;;;7.30;99.90;;;;;;6228215;23;20171;-89
2024/01/26 18:38:35;;;;;;;10.38;2.58;;;7.00;99.90;;;;;;6225685;23;20509;-89
2024/01/26 18:41:04;;;;;;;9.85;3.13;;;7.30;99.90;;;;;;6226789;23;20206;-89
2024/01/26 18:43:33;;;;;;;6.45;3.58;;;7.30;99.90;;;;;;6224020;23;20233;-89
2024/01/26 18:46:21;;;;;;;7.85;3.28;;;7.30;1.00;;;;;;6226532;23;20167;-89
2024/01/26 18:48:49;;;;;;;5.57;2.75;;;7.30;1.00;;;;;;6226822;23;20194;-88
2024/01/26 18:51:17;;;;;;;4.85;2.33;;;7.20;1.00;;;;;;6233168;23;20198;-88
2024/01/26 18:53:48;;;;;;;4.40;2.50;;;7.30;1.00;;;;;;6244620;22;20218;-89
2024/01/26 18:56:33;;;;;;;4.90;3.20;;;7.10;99.90;;;;;;6237353;22;20155;-89
2024/01/26 18:59:10;;;;;;;6.22;2.60;;;7.30;1.00;;;;;;6238451;23;20401;-88
2024/01/26 19:01:38;;;;;;;11.05;3.50;;;7.60;1.00;;;;;;6238424;22;20169;-89
2024/01/26 19:04:13;;;;;;;9.13;2.97;;;7.20;1.00;;;;;;6245608;22;20183;-88
2024/01/26 19:06:43;;;;;;;14.07;3.25;;;7.30;1.00;;;;;;6244723;22;20159;-85
2024/01/26 19:09:11;;;;;;;6.53;3.95;;;7.40;1.00;;;;;;6231250;23;20179;-88
2024/01/26 19:11:42;;;;;;;11.45;4.60;;;7.10;1.00;;;;;;6228255;23;20195;-88
2024/01/26 19:14:09;;;;;;;10.38;2.85;;;7.00;99.90;;;;;;6229130;23;20222;-88
2024/01/26 19:16:36;;;;;;;6.40;3.08;;;6.90;99.90;;;;;;6236737;23;20301;-87
2024/01/26 19:19:03;;;;;;;12.00;3.50;;;6.90;99.90;;;;;;6228466;23;20237;-88
2024/01/26 19:21:30;;;;;;;11.82;2.80;;;6.90;99.90;;;;;;6228708;23;20215;-87
2024/01/26 19:23:57;;;;;;;12.95;3.67;;;6.80;99.90;;;;;;6229946;23;20658;-87
2024/01/26 19:26:24;;;;;;;14.02;3.00;;;6.80;99.90;;;;;;6225514;23;20206;-87
2024/01/26 19:28:52;;;;;;;14.38;3.45;;;6.80;94.70;;;;;;6226691;23;20491;-87
2024/01/26 19:31:21;;;;;;;12.38;2.70;;;6.80;99.90;;;;;;6227852;23;20198;-87
2024/01/26 19:33:48;;;;;;;9.85;3.53;;;6.90;99.90;;;;;;6227456;23;20207;-87
2024/01/26 19:36:15;;;;;;;8.65;2.95;;;6.90;99.90;;;;;;6225881;23;20183;-87
2024/01/26 19:38:42;;;;;;;7.95;3.13;;;6.90;1.00;;;;;;6229809;23;20190;-87
2024/01/26 19:41:12;;;;;;;8.23;2.78;;;6.90;1.00;;;;;;6241410;23;20186;-86
2024/01/26 19:43:39;;;;;;;12.27;3.58;;;6.90;1.00;;;;;;6233697;23;20187;-86
2024/01/26 19:46:16;;;;;;;33.97;14.30;;;6.90;1.00;;;;;;6228325;23;20507;-89
2024/01/26 19:48:43;;;;;;;11.45;3.30;;;6.90;1.00;;;;;;6225728;23;20194;-86
2024/01/26 19:51:12;;;;;;;11.55;3.20;;;6.90;99.90;;;;;;6224133;23;20202;-88
2024/01/26 19:53:43;;;;;;;15.07;4.00;;;6.80;99.90;;;;;;6224317;23;20246;-87
2024/01/26 19:56:12;;;;;;;10.88;3.53;;;6.80;99.90;;;;;;6228768;23;20164;-87
2024/01/26 19:58:42;;;;;;;13.25;3.45;;;6.80;99.90;;;;;;6232013;23;20175;-87
2024/01/26 20:01:19;;;;;;;15.85;3.75;;;6.70;99.90;;;;;;6238655;23;20171;-86
2024/01/26 20:03:46;;;;;;;12.43;4.07;;;6.70;99.90;;;;;;6243459;22;20194;-87
2024/01/26 20:06:14;;;;;;;5.88;3.20;;;6.60;99.90;;;;;;6244527;22;20159;-86
2024/01/26 20:08:42;;;;;;;10.13;2.95;;;6.50;99.90;;;;;;6244844;22;20159;-86
2024/01/26 20:11:09;;;;;;;7.93;3.05;;;6.50;99.90;;;;;;6234759;23;20217;-87
2024/01/26 20:13:35;;;;;;;12.27;2.90;;;6.50;1.00;;;;;;6227734;23;20198;-87
2024/01/26 20:16:05;;;;;;;12.00;4.28;;;6.50;99.90;;;;;;6224283;23;20179;-87
2024/01/26 20:18:35;;;;;;;17.35;2.92;;;6.50;99.90;;;;;;6225203;23;20179;-87
2024/01/26 20:21:06;;;;;;;14.80;4.15;;;6.60;1.00;;;;;;6233692;23;20175;-86
2024/01/26 20:23:34;;;;;;;13.05;3.03;;;6.50;99.90;;;;;;6236599;23;20680;-87
2024/01/26 20:26:07;;;;;;;6.70;3.33;;;6.50;1.00;;;;;;6227617;23;20203;-88
2024/01/26 20:28:36;;;;;;;18.20;4.35;;;6.60;1.00;;;;;;6225942;23;20198;-87
2024/01/26 20:31:03;;;;;;;14.02;3.60;;;6.50;99.90;;;;;;6223052;23;20653;-88
2024/01/26 20:33:30;;;;;;;16.88;3.55;;;6.50;1.00;;;;;;6229221;23;20207;-89
2024/01/26 20:36:03;;;;;;;15.02;2.95;;;6.50;1.00;;;;;;6228982;23;20206;-88
2024/01/26 20:38:30;;;;;;;11.88;3.65;;;6.50;1.00;;;;;;6225466;23;20502;-88
2024/01/26 20:40:57;;;;;;;5.30;2.55;;;6.40;99.90;;;;;;6228099;23;20175;-87
2024/01/26 20:43:25;;;;;;;8.93;2.60;;;6.50;1.00;;;;;;6224279;23;20199;-87
2024/01/26 20:45:55;;;;;;;11.98;3.28;;;6.50;1.00;;;;;;6225568;23;20257;-87
2024/01/26 20:48:22;;;;;;;7.40;3.10;;;6.50;99.90;;;;;;6234225;23;20179;-87
2024/01/26 20:50:50;;;;;;;18.33;3.30;;;6.50;1.00;;;;;;6223948;23;20167;-87
2024/01/26 20:53:18;;;;;;;8.00;2.47;;;6.50;1.00;;;;;;6225602;23;20195;-88
2024/01/26 20:55:45;;;;;;;9.02;3.85;;;6.40;1.00;;;;;;6227357;23;20203;-88
2024/01/26 20:58:12;;;;;;;20.60;3.63;;;6.40;1.00;;;;;;6224960;23;20179;-88
2024/01/26 21:00:39;;;;;;;12.20;3.45;;;6.70;1.00;;;;;;6224372;23;20181;-88
2024/01/26 21:03:07;;;;;;;19.83;4.18;;;6.40;1.00;;;;;;6231065;23;20199;-90
2024/01/26 21:05:39;;;;;;;13.15;4.00;;;6.30;1.00;;;;;;6231056;23;20187;-89
2024/01/26 21:08:06;;;;;;;10.48;2.95;;;6.20;1.00;;;;;;6231246;23;20182;-89
2024/01/26 21:10:35;;;;;;;6.13;2.80;;;6.20;1.00;;;;;;6228530;23;20565;-89
2024/01/26 21:13:02;;;;;;;10.95;2.90;;;6.20;1.00;;;;;;6229647;23;20206;-89
2024/01/26 21:15:30;;;;;;;13.70;3.47;;;6.10;1.00;;;;;;6244098;22;20186;-87
2024/01/26 21:17:56;;;;;;;10.02;3.45;;;6.10;1.00;;;;;;6244184;22;20168;-87
2024/01/26 21:20:24;;;;;;;13.35;3.35;;;6.00;1.00;;;;;;6244112;22;20186;-88
2024/01/26 21:22:51;;;;;;;9.23;3.05;;;5.90;1.00;;;;;;6243327;22;20191;-88
2024/01/26 21:25:19;;;;;;;15.65;3.67;;;5.90;1.00;;;;;;6225477;23;20182;-88
2024/01/26 21:27:48;;;;;;;7.30;3.50;;;5.90;20.50;;;;;;6223260;23;20171;-89
2024/01/26 21:30:20;;;;;;;11.48;3.25;;;5.90;82.40;;;;;;6222652;23;20179;-89
2024/01/26 21:33:00;;;;;;;17.40;3.40;;;5.80;1.00;;;;;;6225460;23;20214;-88
2024/01/26 21:35:27;;;;;;;12.50;3.65;;;5.80;1.00;;;;;;6243228;22;20161;-88
2024/01/26 21:37:56;;;;;;;14.45;3.72;;;5.80;99.90;;;;;;6236202;22;20246;-87
2024/01/26 21:40:23;;;;;;;14.30;3.75;;;5.70;1.00;;;;;;6224095;23;20221;-88
2024/01/26 21:42:53;;;;;;;11.13;3.20;;;5.80;99.90;;;;;;6221009;23;20202;-88
2024/01/26 21:45:20;;;;;;;14.85;4.05;;;5.80;1.00;;;;;;6222159;23;20618;-87
2024/01/26 21:47:47;;;;;;;10.18;3.33;;;5.90;99.90;;;;;;6223722;23;20179;-88
2024/01/26 21:50:16;;;;;;;12.80;3.88;;;5.90;97.90;;;;;;6240695;23;20170;-88
2024/01/26 21:52:43;;;;;;;16.15;3.92;;;5.90;1.00;;;;;;6236425;23;20261;-88
2024/01/26 21:55:10;;;;;;;14.27;3.65;;;5.90;1.00;;;;;;6225380;23;20175;-88
2024/01/26 21:57:37;;;;;;;16.90;3.45;;;5.90;1.00;;;;;;6220828;23;20177;-88
2024/01/26 22:00:07;;;;;;;18.45;3.50;;;5.90;1.00;;;;;;6220528;23;20210;-89
2024/01/26 22:02:37;;;;;;;10.90;4.20;;;5.90;1.00;;;;;;6221491;23;20202;-88
2024/01/26 22:05:04;;;;;;;12.95;2.97;;;6.00;1.00;;;;;;6225452;23;20217;-88
2024/01/26 22:07:32;;;;;;;21.83;4.30;;;6.00;99.90;;;;;;6221561;23;20257;-89
2024/01/26 22:10:04;;;;;;;11.13;4.10;;;6.10;1.00;;;;;;6223702;23;20246;-89
2024/01/26 22:12:31;;;;;;;11.23;3.17;;;6.00;99.90;;;;;;6225373;23;20187;-88
2024/01/26 22:14:59;;;;;;;6.72;3.10;;;6.10;1.00;;;;;;6224725;23;20176;-87
2024/01/26 22:17:28;;;;;;;13.00;4.15;;;6.10;99.90;;;;;;6238270;23;20208;-88
2024/01/26 22:19:55;;;;;;;12.55;3.67;;;6.10;99.90;;;;;;6241556;22;20182;-88
2024/01/26 22:22:22;;;;;;;8.70;2.63;;;6.10;99.90;;;;;;6243510;22;20214;-88
2024/01/26 22:24:49;;;;;;;14.48;3.53;;;6.20;99.90;;;;;;6232639;22;20175;-87
2024/01/26 22:27:16;;;;;;;9.43;3.33;;;6.00;99.90;;;;;;6222917;23;20183;-88
2024/01/26 22:29:42;;;;;;;11.48;2.58;;;5.90;99.90;;;;;;6226565;23;20195;-87
2024/01/26 22:32:10;;;;;;;12.90;2.85;;;5.80;99.90;;;;;;6227530;23;20199;-87
2024/01/26 22:34:38;;;;;;;11.18;3.17;;;5.80;99.90;;;;;;6237842;23;20199;-87
2024/01/26 22:37:05;;;;;;;8.05;2.58;;;5.90;99.90;;;;;;6240923;22;20201;-86
2024/01/26 22:39:32;;;;;;;11.55;3.72;;;6.20;99.90;;;;;;6243033;22;20641;-86
2024/01/26 22:42:00;;;;;;;9.85;4.00;;;5.80;99.90;;;;;;6243329;22;20174;-86
2024/01/26 22:44:27;;;;;;;10.88;3.78;;;5.80;99.90;;;;;;6243512;22;20183;-86
2024/01/26 22:46:54;;;;;;;10.70;4.03;;;5.80;99.90;;;;;;6243892;22;20163;-84
2024/01/26 22:49:21;;;;;;;9.00;2.50;;;5.90;99.90;;;;;;6243821;22;20175;-87
2024/01/26 22:51:52;;;;;;;9.50;3.20;;;5.90;99.90;;;;;;6243438;22;20187;-86
2024/01/26 22:54:19;;;;;;;9.60;3.55;;;5.90;99.90;;;;;;6243759;22;20195;-87
2024/01/26 22:56:48;;;;;;;7.95;3.08;;;6.00;99.90;;;;;;6242630;22;20210;-88
2024/01/26 22:59:15;;;;;;;3.65;2.05;;;5.90;99.90;;;;;;6236707;23;20231;-88
2024/01/26 23:01:43;;;;;;;6.65;3.08;;;5.90;99.90;;;;;;6230023;23;20167;-81
2024/01/26 23:04:11;;;;;;;12.70;4.55;;;5.90;99.90;;;;;;6234523;23;20206;-87
2024/01/26 23:06:38;;;;;;;11.77;3.05;;;5.90;99.90;;;;;;6237723;23;20197;-88
2024/01/26 23:09:06;;;;;;;8.50;2.42;;;5.90;99.90;;;;;;6235193;23;20179;-88
2024/01/26 23:11:38;;;;;;;9.38;3.00;;;5.90;99.90;;;;;;6225902;23;20199;-89
2024/01/26 23:14:12;;;;;;;8.07;2.28;;;5.90;99.90;;;;;;6225966;23;20199;-89
2024/01/26 23:16:39;;;;;;;8.48;3.47;;;5.90;99.90;;;;;;6234989;23;20190;-87
2024/01/26 23:19:06;;;;;;;15.27;3.33;;;5.90;99.90;;;;;;6245979;22;20163;-88
2024/01/26 23:21:34;;;;;;;12.18;2.92;;;5.90;99.90;;;;;;6245741;22;20207;-88
2024/01/26 23:24:00;;;;;;;7.57;4.35;;;5.80;99.90;;;;;;6238854;22;20230;-88
2024/01/26 23:26:29;;;;;;;9.07;2.38;;;5.80;99.90;;;;;;6227167;23;20183;-87
2024/01/26 23:28:56;;;;;;;17.98;3.50;;;5.80;99.90;;;;;;6232675;23;20179;-87
2024/01/26 23:31:23;;;;;;;8.98;4.68;;;5.80;99.90;;;;;;6244601;22;20193;-86
2024/01/26 23:33:53;;;;;;;12.63;4.13;;;5.80;99.90;;;;;;6239936;22;20229;-87
2024/01/26 23:36:21;;;;;;;15.45;2.92;;;5.70;99.90;;;;;;6243327;22;20168;-86
2024/01/26 23:38:48;;;;;;;13.18;3.35;;;5.80;99.90;;;;;;6244689;22;20223;-87
2024/01/26 23:41:17;;;;;;;11.57;3.03;;;5.70;99.90;;;;;;6244812;22;20155;-87
2024/01/26 23:43:45;;;;;;;9.52;3.35;;;5.70;99.90;;;;;;6241093;22;20524;-86
2024/01/26 23:46:12;;;;;;;11.35;2.70;;;5.70;99.90;;;;;;6232974;23;20179;-89
2024/01/26 23:48:39;;;;;;;10.32;3.35;;;5.70;99.90;;;;;;6233679;23;20182;-87
2024/01/26 23:51:26;;;;;;;12.30;3.55;;;6.40;99.90;;;;;;6225199;23;20189;-87
2024/01/26 23:57:06;;;;;;;8.82;3.15;;;5.80;99.90;;;;;;6180127;23;20179;-89
2024/01/26 23:59:35;;;;;;;12.93;3.72;;;5.70;99.90;;;;;;6221401;23;20170;-87
